createdAt,value
2018-06-29T00:01:45.971Z,18.10
2018-06-29T00:04:18.826Z,18.20
2018-06-29T00:06:50.661Z,18.20
2018-06-29T00:09:24.259Z,18.20
2018-06-29T00:11:55.709Z,18.40
2018-06-29T00:14:28.293Z,18.40
2018-06-29T00:17:01.792Z,18.60
2018-06-29T00:19:37.669Z,18.50
2018-06-29T00:22:11.272Z,18.60
2018-06-29T00:25:02.091Z,18.40
2018-06-29T00:27:34.339Z,18.30
2018-06-29T00:30:07.860Z,18.10
2018-06-29T00:32:39.487Z,18.00
2018-06-29T00:35:10.164Z,17.90
2018-06-29T00:37:41.677Z,17.90
2018-06-29T00:40:25.527Z,17.80
2018-06-29T00:42:58.944Z,17.70
2018-06-29T00:45:31.164Z,17.60
2018-06-29T00:48:03.848Z,17.60
2018-06-29T00:50:36.562Z,17.50
2018-06-29T00:53:08.348Z,17.40
2018-06-29T00:55:43.210Z,17.40
2018-06-29T00:58:14.728Z,17.40
2018-06-29T01:00:47.264Z,17.30
2018-06-29T01:03:19.125Z,17.20
2018-06-29T01:05:50.755Z,17.10
2018-06-29T01:08:25.820Z,17.00
2018-06-29T01:10:59.227Z,16.90
2018-06-29T01:13:30.750Z,16.90
2018-06-29T01:16:03.055Z,16.90
2018-06-29T01:18:37.254Z,16.80
2018-06-29T01:21:09.260Z,16.70
2018-06-29T01:23:44.930Z,16.70
2018-06-29T01:26:16.842Z,16.60
2018-06-29T01:28:48.003Z,16.60
2018-06-29T01:31:19.882Z,16.50
2018-06-29T01:33:52.456Z,16.60
2018-06-29T01:36:24.478Z,16.80
2018-06-29T01:38:56.285Z,17.00
2018-06-29T01:41:28.203Z,17.10
2018-06-29T01:44:04.450Z,17.00
2018-06-29T01:46:35.833Z,17.00
2018-06-29T01:49:10.075Z,17.10
2018-06-29T01:51:41.296Z,17.10
2018-06-29T01:54:13.869Z,17.20
2018-06-29T01:56:44.807Z,17.20
2018-06-29T01:59:16.772Z,17.10
2018-06-29T02:01:47.702Z,17.10
2018-06-29T02:04:19.471Z,17.10
2018-06-29T02:06:50.927Z,17.00
2018-06-29T02:09:22.622Z,16.90
2018-06-29T02:11:53.857Z,16.90
2018-06-29T02:14:26.684Z,17.00
2018-06-29T02:16:58.170Z,16.90
2018-06-29T02:19:30.110Z,17.00
2018-06-29T02:22:01.602Z,16.90
2018-06-29T02:24:36.068Z,17.00
2018-06-29T02:29:41.238Z,16.90
2018-06-29T02:32:12.864Z,16.80
2018-06-29T02:34:45.574Z,16.60
2018-06-29T02:37:17.199Z,16.60
2018-06-29T02:39:48.562Z,16.60
2018-06-29T02:42:19.578Z,16.70
2018-06-29T02:44:51.664Z,16.70
2018-06-29T02:49:55.079Z,16.60
2018-06-29T02:52:26.584Z,16.50
2018-06-29T02:54:58.586Z,16.40
2018-06-29T02:57:31.184Z,16.20
2018-06-29T03:00:04.253Z,16.20
2018-06-29T03:02:36.597Z,16.20
2018-06-29T03:05:08.200Z,16.00
2018-06-29T03:07:40.341Z,16.00
2018-06-29T03:10:13.617Z,16.00
2018-06-29T03:12:47.637Z,16.00
2018-06-29T03:15:19.481Z,16.00
2018-06-29T03:17:50.407Z,16.20
2018-06-29T03:20:22.696Z,16.20
2018-06-29T03:22:54.961Z,16.20
2018-06-29T03:25:26.287Z,16.00
2018-06-29T03:28:00.233Z,16.00
2018-06-29T03:30:32.666Z,16.00
2018-06-29T03:33:06.292Z,15.90
2018-06-29T03:35:37.579Z,16.00
2018-06-29T03:38:13.296Z,16.00
2018-06-29T03:40:44.679Z,15.90
2018-06-29T03:43:16.240Z,15.90
2018-06-29T03:45:48.115Z,16.00
2018-06-29T03:48:19.306Z,16.10
2018-06-29T03:50:51.326Z,16.20
2018-06-29T03:53:22.920Z,16.20
2018-06-29T03:55:54.181Z,16.20
2018-06-29T03:58:26.087Z,16.20
2018-06-29T04:01:01.407Z,16.10
2018-06-29T04:03:33.609Z,16.00
2018-06-29T04:06:13.538Z,15.90
2018-06-29T04:08:48.098Z,16.00
2018-06-29T04:11:19.936Z,16.00
2018-06-29T04:13:53.724Z,15.90
2018-06-29T04:16:44.221Z,15.80
2018-06-29T04:19:18.321Z,15.80
2018-06-29T04:21:50.656Z,15.80
2018-06-29T04:24:21.854Z,15.90
2018-06-29T04:26:53.525Z,15.90
2018-06-29T04:29:24.298Z,15.90
2018-06-29T04:31:56.420Z,16.00
2018-06-29T04:34:26.831Z,16.10
2018-06-29T04:36:58.803Z,16.30
2018-06-29T04:39:36.280Z,16.40
2018-06-29T04:42:07.349Z,16.60
2018-06-29T04:44:39.443Z,16.70
2018-06-29T04:47:13.724Z,16.80
2018-06-29T04:49:46.426Z,16.80
2018-06-29T04:52:17.500Z,16.80
2018-06-29T04:54:49.604Z,16.80
2018-06-29T04:57:21.139Z,16.80
2018-06-29T04:59:53.988Z,17.00
2018-06-29T05:02:25.727Z,17.10
2018-06-29T05:05:04.003Z,17.20
2018-06-29T05:07:36.420Z,17.30
2018-06-29T05:10:07.764Z,17.40
2018-06-29T05:12:39.425Z,17.50
2018-06-29T05:15:11.332Z,17.80
2018-06-29T05:17:43.900Z,17.90
2018-06-29T05:20:15.863Z,18.00
2018-06-29T05:22:47.992Z,18.10
2018-06-29T05:25:20.273Z,18.20
2018-06-29T05:30:24.159Z,18.60
2018-06-29T05:32:58.358Z,18.60
2018-06-29T05:35:29.888Z,18.70
2018-06-29T05:38:01.333Z,18.80
2018-06-29T05:40:32.383Z,18.80
2018-06-29T05:43:03.211Z,19.00
2018-06-29T05:45:34.137Z,19.00
2018-06-29T05:48:04.823Z,19.10
2018-06-29T05:50:36.237Z,19.20
2018-06-29T05:53:08.134Z,19.30
2018-06-29T05:55:39.789Z,19.40
2018-06-29T05:58:16.540Z,19.50
2018-06-29T06:00:50.422Z,19.50
2018-06-29T06:03:23.996Z,19.50
2018-06-29T06:05:55.152Z,19.50
2018-06-29T06:08:26.570Z,19.50
2018-06-29T06:10:57.993Z,19.50
2018-06-29T06:13:44.985Z,19.50
2018-06-29T06:16:17.508Z,19.50
2018-06-29T06:18:49.646Z,19.50
2018-06-29T06:21:21.122Z,19.60
2018-06-29T06:23:55.897Z,19.70
2018-06-29T06:26:27.912Z,19.80
2018-06-29T06:28:59.534Z,19.80
2018-06-29T06:31:32.929Z,19.90
2018-06-29T06:34:05.071Z,20.00
2018-06-29T06:36:36.646Z,20.00
2018-06-29T06:39:11.331Z,20.10
2018-06-29T06:41:43.396Z,20.10
2018-06-29T06:44:15.680Z,20.20
2018-06-29T06:46:48.700Z,20.30
2018-06-29T06:49:20.517Z,20.40
2018-06-29T06:51:51.717Z,20.50
2018-06-29T06:54:25.196Z,20.50
2018-06-29T06:56:56.279Z,20.60
2018-06-29T06:59:27.313Z,20.70
2018-06-29T07:01:59.191Z,20.80
2018-06-29T07:04:32.613Z,20.90
2018-06-29T07:07:04.563Z,21.10
2018-06-29T07:09:35.993Z,21.20
2018-06-29T07:12:08.680Z,21.30
2018-06-29T07:14:43.925Z,21.30
2018-06-29T07:17:14.681Z,21.50
2018-06-29T07:19:48.028Z,21.60
2018-06-29T07:22:19.636Z,21.60
2018-06-29T07:24:51.846Z,21.70
2018-06-29T07:27:26.717Z,21.80
2018-06-29T07:29:57.441Z,21.90
2018-06-29T07:32:32.382Z,22.00
2018-06-29T07:35:02.996Z,22.00
2018-06-29T07:37:50.528Z,22.10
2018-06-29T07:40:20.995Z,22.20
2018-06-29T07:42:57.902Z,22.30
2018-06-29T07:45:28.370Z,22.40
2018-06-29T07:47:59.414Z,22.50
2018-06-29T07:50:30.127Z,22.70
2018-06-29T07:53:00.462Z,22.70
2018-06-29T07:55:32.381Z,22.80
2018-06-29T07:58:04.813Z,23.00
2018-06-29T08:00:35.660Z,23.00
2018-06-29T08:03:06.344Z,23.10
2018-06-29T08:05:41.179Z,23.20
2018-06-29T08:08:11.401Z,23.30
2018-06-29T08:10:48.082Z,23.30
2018-06-29T08:13:18.910Z,23.40
2018-06-29T08:15:52.585Z,23.60
2018-06-29T08:18:23.561Z,23.60
2018-06-29T08:20:55.032Z,23.60
2018-06-29T08:23:32.257Z,23.70
2018-06-29T08:26:13.914Z,23.80
2018-06-29T08:28:44.977Z,23.90
2018-06-29T08:31:15.088Z,24.00
2018-06-29T08:33:45.491Z,24.10
2018-06-29T08:36:16.555Z,24.10
2018-06-29T08:38:47.241Z,24.10
2018-06-29T08:41:30.455Z,24.10
2018-06-29T08:44:01.115Z,24.20
2018-06-29T08:46:41.237Z,24.40
2018-06-29T08:49:11.757Z,24.50
2018-06-29T08:51:41.900Z,24.60
2018-06-29T08:54:11.740Z,24.50
2018-06-29T08:56:44.906Z,24.50
2018-06-29T08:59:15.012Z,24.50
2018-06-29T09:01:48.244Z,24.60
2018-06-29T09:04:18.599Z,24.60
2018-06-29T09:07:00.527Z,24.80
2018-06-29T09:09:30.818Z,25.00
2018-06-29T09:12:07.952Z,25.00
2018-06-29T09:14:37.916Z,25.10
2018-06-29T09:18:11.727Z,25.30
2018-06-29T09:20:43.030Z,25.50
2018-06-29T09:23:13.250Z,25.50
2018-06-29T09:25:43.636Z,25.90
2018-06-29T09:28:25.096Z,27.10
2018-06-29T09:30:55.460Z,28.00
2018-06-29T09:33:32.803Z,29.20
2018-06-29T09:36:03.010Z,30.00
2018-06-29T09:38:33.378Z,30.90
2018-06-29T09:41:03.085Z,31.00
2018-06-29T09:43:33.270Z,30.90
2018-06-29T09:46:10.020Z,31.00
2018-06-29T09:48:40.381Z,31.20
2018-06-29T09:51:17.694Z,31.50
2018-06-29T09:53:47.682Z,32.00
2018-06-29T09:56:34.687Z,32.30
2018-06-29T09:59:04.731Z,32.60
2018-06-29T10:01:40.600Z,32.70
2018-06-29T10:04:11.022Z,32.70
2018-06-29T10:06:41.812Z,32.80
2018-06-29T10:09:12.702Z,32.70
2018-06-29T10:11:43.009Z,32.90
2018-06-29T10:14:13.346Z,32.50
2018-06-29T10:17:19.415Z,32.10
2018-06-29T10:20:19.785Z,31.60
2018-06-29T10:23:00.490Z,32.10
2018-06-29T10:25:47.220Z,32.20
2018-06-29T10:28:33.970Z,32.30
2018-06-29T10:31:10.829Z,32.40
2018-06-29T10:33:41.975Z,33.10
2018-06-29T10:36:13.502Z,33.20
2018-06-29T10:38:45.331Z,33.30
2018-06-29T10:41:17.378Z,32.90
2018-06-29T10:43:49.361Z,33.30
2018-06-29T10:46:20.615Z,33.20
2018-06-29T10:48:51.885Z,33.30
2018-06-29T10:51:23.783Z,33.60
2018-06-29T10:53:55.700Z,33.60
2018-06-29T10:56:26.580Z,33.30
2018-06-29T10:58:57.815Z,33.30
2018-06-29T11:01:28.842Z,33.80
2018-06-29T11:04:01.110Z,34.50
2018-06-29T11:06:32.922Z,35.10
2018-06-29T11:09:07.201Z,34.80
2018-06-29T11:11:38.179Z,34.50
2018-06-29T11:14:09.524Z,35.00
2018-06-29T11:16:40.673Z,35.50
2018-06-29T11:19:26.809Z,35.50
2018-06-29T11:21:59.458Z,35.40
2018-06-29T11:24:30.469Z,35.10
2018-06-29T11:27:02.623Z,35.10
2018-06-29T11:29:34.682Z,35.10
2018-06-29T11:32:05.162Z,35.00
2018-06-29T11:34:41.333Z,34.80
2018-06-29T11:37:12.326Z,35.00
2018-06-29T11:39:44.400Z,35.10
2018-06-29T11:42:15.024Z,35.60
2018-06-29T11:44:47.138Z,36.20
2018-06-29T11:47:19.405Z,36.00
2018-06-29T11:49:49.531Z,35.70
2018-06-29T11:52:19.831Z,35.30
2018-06-29T11:54:51.971Z,36.20
2018-06-29T11:57:22.217Z,36.40
2018-06-29T11:59:56.710Z,35.80
2018-06-29T12:02:27.269Z,36.20
2018-06-29T12:04:58.359Z,35.90
2018-06-29T12:09:59.054Z,35.70
2018-06-29T12:12:30.316Z,36.00
2018-06-29T12:15:01.662Z,36.90
2018-06-29T12:17:33.006Z,37.30
2018-06-29T12:20:03.035Z,37.60
2018-06-29T12:22:33.733Z,37.40
2018-06-29T12:25:04.165Z,36.90
2018-06-29T12:27:36.768Z,37.20
2018-06-29T12:30:09.218Z,37.40
2018-06-29T12:32:40.693Z,37.50
2018-06-29T12:35:12.146Z,37.50
2018-06-29T12:37:44.010Z,37.70
2018-06-29T12:40:15.438Z,38.20
2018-06-29T12:42:48.339Z,38.80
2018-06-29T12:45:17.795Z,39.10
2018-06-29T12:47:50.571Z,39.10
2018-06-29T12:50:21.065Z,39.50
2018-06-29T12:52:57.637Z,39.70
2018-06-29T12:55:29.230Z,39.80
2018-06-29T12:58:01.361Z,39.40
2018-06-29T13:00:33.508Z,39.10
2018-06-29T13:03:09.573Z,38.40
2018-06-29T13:05:40.600Z,38.30
2018-06-29T13:08:13.880Z,38.50
2018-06-29T13:10:43.816Z,38.40
2018-06-29T13:13:15.277Z,38.40
2018-06-29T13:15:45.799Z,38.80
2018-06-29T13:18:17.272Z,39.30
2018-06-29T13:20:51.099Z,39.60
2018-06-29T13:23:23.299Z,39.50
2018-06-29T13:25:54.994Z,39.50
2018-06-29T13:28:26.775Z,39.80
2018-06-29T13:30:58.732Z,39.60
2018-06-29T13:33:31.669Z,38.90
2018-06-29T13:36:03.192Z,39.00
2018-06-29T13:38:35.166Z,39.30
2018-06-29T13:41:06.846Z,39.40
2018-06-29T13:43:38.177Z,39.60
2018-06-29T13:46:15.723Z,40.30
2018-06-29T13:48:47.626Z,40.40
2018-06-29T13:51:19.424Z,40.70
2018-06-29T13:53:51.420Z,40.80
2018-06-29T13:56:23.077Z,39.90
2018-06-29T13:58:54.907Z,39.80
2018-06-29T14:01:26.673Z,40.20
2018-06-29T14:03:59.598Z,40.30
2018-06-29T14:06:31.332Z,39.80
2018-06-29T14:09:02.871Z,39.60
2018-06-29T14:11:35.006Z,39.80
2018-06-29T14:14:07.540Z,39.80
2018-06-29T14:16:39.586Z,39.90
2018-06-29T14:19:11.423Z,40.70
2018-06-29T14:21:42.996Z,41.00
2018-06-29T14:24:14.196Z,41.00
2018-06-29T14:26:45.579Z,40.80
2018-06-29T14:29:17.602Z,40.70
2018-06-29T14:31:49.826Z,40.80
2018-06-29T14:34:20.369Z,41.10
2018-06-29T14:36:51.617Z,41.30
2018-06-29T14:39:22.553Z,41.90
2018-06-29T14:41:52.991Z,42.10
2018-06-29T14:44:24.351Z,42.20
2018-06-29T14:46:57.242Z,42.10
2018-06-29T14:49:29.758Z,41.70
2018-06-29T14:52:01.189Z,41.20
2018-06-29T14:57:08.094Z,40.10
2018-06-29T14:59:39.356Z,40.00
2018-06-29T15:02:12.374Z,39.90
2018-06-29T15:04:46.775Z,39.40
2018-06-29T15:07:17.218Z,39.90
2018-06-29T15:09:48.956Z,40.70
2018-06-29T15:12:21.114Z,40.90
2018-06-29T15:14:51.763Z,41.60
2018-06-29T15:17:22.005Z,41.00
2018-06-29T15:19:52.979Z,41.80
2018-06-29T15:22:24.763Z,41.70
2018-06-29T15:24:57.248Z,41.70
2018-06-29T15:27:35.081Z,41.80
2018-06-29T15:30:08.604Z,41.30
2018-06-29T15:32:42.570Z,42.20
2018-06-29T15:35:13.110Z,42.30
2018-06-29T15:37:51.485Z,42.80
2018-06-29T15:40:23.021Z,42.60
2018-06-29T15:45:25.494Z,42.40
2018-06-29T15:47:55.521Z,42.40
2018-06-29T15:50:25.773Z,42.40
2018-06-29T15:53:03.475Z,42.00
2018-06-29T15:55:39.086Z,41.90
2018-06-29T15:58:12.390Z,42.00
2018-06-29T16:00:42.791Z,42.00
2018-06-29T16:03:14.315Z,41.70
2018-06-29T16:05:45.025Z,41.20
2018-06-29T16:08:17.849Z,40.90
2018-06-29T16:10:50.326Z,40.90
2018-06-29T16:13:21.859Z,40.90
2018-06-29T16:16:03.806Z,40.80
2018-06-29T16:18:34.864Z,40.20
2018-06-29T16:21:08.821Z,40.40
2018-06-29T16:23:39.965Z,40.80
2018-06-29T16:28:53.262Z,40.10
2018-06-29T16:31:27.116Z,40.40
2018-06-29T16:33:56.967Z,40.50
2018-06-29T16:36:29.789Z,40.90
2018-06-29T16:39:01.663Z,40.70
2018-06-29T16:41:33.637Z,40.40
2018-06-29T16:44:09.632Z,40.60
2018-06-29T16:46:40.688Z,40.90
2018-06-29T16:49:11.203Z,40.30
2018-06-29T16:51:43.381Z,40.20
2018-06-29T16:54:14.865Z,39.90
2018-06-29T16:56:45.632Z,39.50
2018-06-29T16:59:19.447Z,39.40
2018-06-29T17:01:51.781Z,39.70
2018-06-29T17:04:26.954Z,39.90
2018-06-29T17:07:07.089Z,39.60
2018-06-29T17:09:37.897Z,39.20
2018-06-29T17:12:10.301Z,39.50
2018-06-29T17:17:18.303Z,39.40
2018-06-29T17:19:50.171Z,39.60
2018-06-29T17:22:22.823Z,39.20
2018-06-29T17:24:55.220Z,39.00
2018-06-29T17:27:26.528Z,38.50
2018-06-29T17:30:09.555Z,38.30
2018-06-29T17:32:40.925Z,38.20
2018-06-29T17:35:12.586Z,37.70
2018-06-29T17:37:43.519Z,37.70
2018-06-29T17:40:16.764Z,37.80
2018-06-29T17:42:48.194Z,37.90
2018-06-29T17:45:22.921Z,37.70
2018-06-29T17:47:54.844Z,37.30
2018-06-29T17:50:25.709Z,37.40
2018-06-29T17:52:56.467Z,37.70
2018-06-29T17:55:32.268Z,37.50
2018-06-29T17:58:04.388Z,37.10
2018-06-29T18:00:35.514Z,36.80
2018-06-29T18:03:10.189Z,36.70
2018-06-29T18:05:41.184Z,36.70
2018-06-29T18:08:15.460Z,36.70
2018-06-29T18:10:48.483Z,36.60
2018-06-29T18:13:20.290Z,36.60
2018-06-29T18:15:51.535Z,36.00
2018-06-29T18:18:24.330Z,35.50
2018-06-29T18:20:58.434Z,34.20
2018-06-29T18:23:34.348Z,33.30
2018-06-29T18:26:05.867Z,32.60
2018-06-29T18:28:43.017Z,32.00
2018-06-29T18:31:22.627Z,31.50
2018-06-29T18:34:08.526Z,30.80
2018-06-29T18:36:41.099Z,30.40
2018-06-29T18:39:19.704Z,29.90
2018-06-29T18:41:56.512Z,29.60
2018-06-29T18:44:33.321Z,29.40
2018-06-29T18:47:05.774Z,29.00
2018-06-29T18:49:41.579Z,28.80
2018-06-29T18:52:14.132Z,28.60
2018-06-29T18:54:47.135Z,28.50
2018-06-29T18:57:21.741Z,28.40
2018-06-29T19:40:02.503Z,25.90
2018-06-29T19:42:34.209Z,25.80
2018-06-29T19:45:09.569Z,25.70
2018-06-29T19:47:44.453Z,25.50
2018-06-29T19:50:16.423Z,25.40
2018-06-29T19:52:47.081Z,25.30
2018-06-29T19:55:16.446Z,25.10
2018-06-29T19:57:52.924Z,25.00
2018-06-29T20:03:12.174Z,24.80
2018-06-29T20:05:43.870Z,24.70
2018-06-29T20:08:16.897Z,24.60
2018-06-29T20:10:48.093Z,24.50
2018-06-29T20:13:18.779Z,24.40
2018-06-29T20:15:50.320Z,24.30
2018-06-29T20:18:21.483Z,24.20
2018-06-29T20:20:52.582Z,24.10
2018-06-29T20:23:28.789Z,24.00
2018-06-29T20:26:00.958Z,23.90
2018-06-29T20:28:31.616Z,23.80
2018-06-29T20:31:08.529Z,23.70
2018-06-29T20:33:47.151Z,23.60
2018-06-29T20:36:16.780Z,23.50
2018-06-29T20:38:47.996Z,23.40
2018-06-29T20:41:20.923Z,23.30
2018-06-29T20:43:51.727Z,23.20
2018-06-29T20:46:22.424Z,23.00
2018-06-29T20:48:54.884Z,23.10
2018-06-29T20:51:28.954Z,23.00
2018-06-29T20:54:01.146Z,22.90
2018-06-29T20:56:31.855Z,22.90
2018-06-29T20:59:02.424Z,22.80
2018-06-29T21:01:41.680Z,22.60
2018-06-29T21:04:22.578Z,22.50
2018-06-29T21:06:52.724Z,22.30
2018-06-29T21:09:22.592Z,22.30
2018-06-29T21:12:01.253Z,22.30
2018-06-29T21:14:31.618Z,22.30
2018-06-29T21:17:13.979Z,22.20
2018-06-29T21:19:49.725Z,22.10
2018-06-29T21:22:24.082Z,22.10
2018-06-29T21:24:54.240Z,21.90
2018-06-29T21:27:29.138Z,21.90
2018-06-29T21:30:00.665Z,21.90
2018-06-29T21:32:31.615Z,21.90
2018-06-29T21:35:02.714Z,21.80
2018-06-29T21:37:33.390Z,21.70
2018-06-29T21:40:04.793Z,21.70
2018-06-29T21:42:40.249Z,21.70
2018-06-29T21:45:10.113Z,21.60
2018-06-29T21:47:38.915Z,21.60
2018-06-29T21:50:10.101Z,21.50
2018-06-29T21:52:40.865Z,21.40
2018-06-29T21:55:11.869Z,21.40
2018-06-29T21:57:42.732Z,21.30
2018-06-29T22:00:14.786Z,21.30
2018-06-29T22:05:16.620Z,21.10
2018-06-29T22:07:47.989Z,21.10
2018-06-29T22:10:18.897Z,21.20
2018-06-29T22:12:51.369Z,21.20
2018-06-29T22:15:24.994Z,21.10
2018-06-29T22:17:55.989Z,21.10
2018-06-29T22:20:26.617Z,21.10
2018-06-29T22:22:57.399Z,21.00
2018-06-29T22:25:28.188Z,21.00
2018-06-29T22:27:59.234Z,21.00
2018-06-29T22:30:36.980Z,21.00
2018-06-29T22:33:05.991Z,20.90
2018-06-29T22:35:42.768Z,20.80
2018-06-29T22:38:13.722Z,20.70
2018-06-29T22:40:57.692Z,20.60
2018-06-29T22:43:26.666Z,20.50
2018-06-29T22:45:55.690Z,20.50
2018-06-29T22:48:26.552Z,20.40
2018-06-29T22:50:57.377Z,20.30
2018-06-29T22:53:28.995Z,20.30
2018-06-29T22:55:59.435Z,20.20
2018-06-29T22:58:30.098Z,20.20
2018-06-29T23:01:06.701Z,20.10
2018-06-29T23:03:43.291Z,20.10
2018-06-29T23:06:14.176Z,20.00
2018-06-29T23:08:44.808Z,19.90
2018-06-29T23:11:15.437Z,19.90
2018-06-29T23:13:46.147Z,19.70
2018-06-29T23:16:16.743Z,19.70
2018-06-29T23:18:47.772Z,19.60
2018-06-29T23:21:18.622Z,19.60
2018-06-29T23:23:47.319Z,19.50
2018-06-29T23:26:19.916Z,19.40
2018-06-29T23:28:49.824Z,19.40
2018-06-29T23:31:18.720Z,19.30
2018-06-29T23:33:50.428Z,19.30
2018-06-29T23:36:19.208Z,19.20
2018-06-29T23:38:50.056Z,19.10
2018-06-29T23:41:19.532Z,19.10
2018-06-29T23:43:50.007Z,19.10
2018-06-29T23:46:19.018Z,19.10
2018-06-29T23:48:50.378Z,19.00
2018-06-29T23:51:21.304Z,18.90
2018-06-29T23:53:51.655Z,18.80
2018-06-29T23:56:22.100Z,18.70
2018-06-29T23:58:58.878Z,18.60
